createdAt,value
2018-07-14T00:02:01.611Z,12.87
2018-07-14T00:04:29.972Z,11.37
2018-07-14T00:06:58.425Z,11.47
2018-07-14T00:09:26.777Z,10.97
2018-07-14T00:11:55.187Z,10.60
2018-07-14T00:14:23.544Z,9.87
2018-07-14T00:16:51.895Z,11.10
2018-07-14T00:19:20.305Z,11.10
2018-07-14T00:21:48.639Z,10.57
2018-07-14T00:24:17.011Z,10.43
2018-07-14T00:26:45.395Z,12.97
2018-07-14T00:29:13.719Z,13.87
2018-07-14T00:31:42.103Z,11.80
2018-07-14T00:34:11.419Z,11.10
2018-07-14T00:36:39.791Z,12.23
2018-07-14T00:39:08.188Z,11.53
2018-07-14T00:41:36.553Z,12.17
2018-07-14T00:44:04.935Z,12.33
2018-07-14T00:46:33.287Z,13.33
2018-07-14T00:49:01.598Z,12.03
2018-07-14T00:51:30.005Z,13.37
2018-07-14T00:53:58.371Z,12.23
2018-07-14T00:56:26.826Z,11.87
2018-07-14T00:58:55.133Z,14.97
2018-07-14T01:01:23.468Z,12.33
2018-07-14T01:03:51.768Z,10.77
2018-07-14T01:06:20.160Z,13.57
2018-07-14T01:08:48.864Z,15.07
2018-07-14T01:11:17.229Z,12.83
2018-07-14T01:13:45.544Z,14.43
2018-07-14T01:16:13.897Z,12.00
2018-07-14T01:18:42.216Z,13.50
2018-07-14T01:21:10.627Z,13.47
2018-07-14T01:23:39.008Z,13.00
2018-07-14T01:26:07.392Z,12.17
2018-07-14T01:28:35.696Z,12.10
2018-07-14T01:31:04.149Z,12.83
2018-07-14T01:33:32.590Z,12.83
2018-07-14T01:36:00.958Z,12.70
2018-07-14T01:38:29.400Z,11.93
2018-07-14T01:40:57.875Z,11.97
2018-07-14T01:43:26.196Z,12.33
2018-07-14T01:45:54.559Z,11.87
2018-07-14T01:48:22.900Z,12.90
2018-07-14T01:50:52.855Z,14.23
2018-07-14T01:53:21.328Z,13.17
2018-07-14T01:55:49.785Z,12.03
2018-07-14T01:58:18.282Z,12.00
2018-07-14T02:00:46.635Z,12.40
2018-07-14T02:03:14.984Z,14.50
2018-07-14T02:05:43.340Z,14.43
2018-07-14T02:08:11.703Z,13.63
2018-07-14T02:10:40.154Z,14.83
2018-07-14T02:13:08.625Z,13.43
2018-07-14T02:15:37.023Z,13.10
2018-07-14T02:18:05.362Z,14.60
2018-07-14T02:20:33.704Z,15.10
2018-07-14T02:23:02.023Z,15.17
2018-07-14T02:25:30.348Z,14.93
2018-07-14T02:27:58.692Z,13.07
2018-07-14T02:30:27.020Z,14.97
2018-07-14T02:32:55.405Z,12.60
2018-07-14T02:35:23.713Z,16.67
2018-07-14T02:37:52.106Z,14.87
2018-07-14T02:40:20.417Z,14.03
2018-07-14T02:42:48.823Z,13.23
2018-07-14T02:45:17.274Z,13.00
2018-07-14T02:47:45.668Z,13.30
2018-07-14T02:50:14.006Z,13.33
2018-07-14T02:52:42.476Z,17.33
2018-07-14T02:55:10.819Z,18.77
2018-07-14T02:57:39.175Z,17.63
2018-07-14T03:00:07.522Z,20.23
2018-07-14T03:02:35.904Z,16.87
2018-07-14T03:05:04.219Z,19.00
2018-07-14T03:07:32.572Z,17.57
2018-07-14T03:10:00.906Z,17.10
2018-07-14T03:12:29.276Z,16.73
2018-07-14T03:14:57.582Z,17.07
2018-07-14T03:17:25.953Z,17.67
2018-07-14T03:19:54.292Z,15.70
2018-07-14T03:22:22.688Z,17.33
2018-07-14T03:24:51.006Z,16.77
2018-07-14T03:27:19.360Z,21.23
2018-07-14T03:29:47.685Z,17.93
2018-07-14T03:32:16.067Z,19.93
2018-07-14T03:34:44.440Z,19.10
2018-07-14T03:37:12.853Z,22.33
2018-07-14T03:39:41.175Z,19.93
2018-07-14T03:42:09.647Z,22.43
2018-07-14T03:44:38.653Z,18.53
2018-07-14T03:47:06.999Z,18.33
2018-07-14T03:49:35.340Z,18.53
2018-07-14T03:52:03.726Z,19.30
2018-07-14T03:54:32.089Z,19.10
2018-07-14T03:57:00.495Z,19.47
2018-07-14T03:59:28.884Z,22.07
2018-07-14T04:01:57.827Z,22.97
2018-07-14T04:04:26.186Z,23.17
2018-07-14T04:06:54.515Z,23.50
2018-07-14T04:09:22.878Z,20.43
2018-07-14T04:11:51.261Z,20.70
2018-07-14T04:14:19.619Z,22.07
2018-07-14T04:16:47.999Z,23.60
2018-07-14T04:19:16.439Z,21.60
2018-07-14T04:21:44.806Z,21.33
2018-07-14T04:24:13.165Z,22.23
2018-07-14T04:26:41.492Z,21.10
2018-07-14T04:29:09.827Z,22.23
2018-07-14T04:31:38.214Z,19.47
2018-07-14T04:34:06.573Z,20.73
2018-07-14T04:36:34.898Z,21.90
2018-07-14T04:39:03.809Z,21.67
2018-07-14T04:41:32.166Z,21.27
2018-07-14T04:44:00.602Z,22.43
2018-07-14T04:46:28.918Z,21.93
2018-07-14T04:48:57.353Z,21.13
2018-07-14T04:51:25.774Z,23.10
2018-07-14T04:53:54.148Z,24.00
2018-07-14T04:56:22.590Z,29.43
2018-07-14T04:58:51.412Z,27.70
2018-07-14T05:01:19.732Z,32.93
2018-07-14T05:03:48.203Z,27.77
2018-07-14T05:06:16.637Z,27.27
2018-07-14T05:08:45.024Z,28.87
2018-07-14T05:11:13.363Z,29.17
2018-07-14T05:13:41.726Z,27.47
2018-07-14T05:16:10.092Z,30.70
2018-07-14T05:18:38.432Z,26.13
2018-07-14T05:21:06.851Z,30.13
2018-07-14T05:23:35.234Z,32.80
2018-07-14T05:26:03.593Z,27.03
2018-07-14T05:28:32.004Z,25.83
2018-07-14T05:31:00.395Z,24.97
2018-07-14T05:33:43.487Z,25.23
2018-07-14T05:36:12.336Z,28.97
2018-07-14T05:38:40.702Z,25.70
2018-07-14T05:41:09.047Z,24.00
2018-07-14T05:43:37.411Z,26.23
2018-07-14T05:46:05.772Z,24.70
2018-07-14T05:48:34.136Z,25.33
2018-07-14T05:51:02.500Z,24.63
2018-07-14T05:53:30.883Z,24.80
2018-07-14T05:55:59.233Z,26.10
2018-07-14T05:58:27.594Z,26.90
2018-07-14T06:00:56.023Z,26.03
2018-07-14T06:03:24.400Z,25.53
2018-07-14T06:05:52.727Z,23.37
2018-07-14T06:08:21.080Z,22.97
2018-07-14T06:10:49.934Z,23.60
2018-07-14T06:13:18.428Z,25.83
2018-07-14T06:15:50.680Z,24.57
2018-07-14T06:18:19.095Z,26.93
2018-07-14T06:20:47.440Z,26.60
2018-07-14T06:23:15.872Z,25.17
2018-07-14T06:25:44.203Z,26.97
2018-07-14T06:28:13.702Z,28.73
2018-07-14T06:30:42.247Z,26.53
2018-07-14T06:33:10.660Z,23.47
2018-07-14T06:35:39.874Z,26.10
2018-07-14T06:38:09.710Z,24.73
2018-07-14T06:40:40.505Z,26.47
2018-07-14T06:43:08.880Z,27.47
2018-07-14T06:45:37.324Z,26.17
2018-07-14T06:48:05.652Z,24.03
2018-07-14T06:50:36.165Z,25.87
2018-07-14T06:53:04.923Z,27.30
2018-07-14T06:55:33.280Z,23.37
2018-07-14T06:58:02.350Z,23.43
2018-07-14T07:00:43.018Z,24.17
2018-07-14T07:03:11.357Z,25.80
2018-07-14T07:05:39.764Z,26.80
2018-07-14T07:08:08.173Z,25.17
2018-07-14T07:10:36.546Z,27.23
2018-07-14T07:13:04.898Z,29.67
2018-07-14T07:15:33.286Z,25.53
2018-07-14T07:18:01.659Z,23.43
2018-07-14T07:20:30.132Z,25.03
2018-07-14T07:22:58.477Z,27.33
2018-07-14T07:25:26.960Z,25.40
2018-07-14T07:27:56.472Z,24.60
2018-07-14T07:30:24.877Z,26.40
2018-07-14T07:32:53.260Z,23.73
2018-07-14T07:35:21.721Z,24.07
2018-07-14T07:37:50.341Z,22.13
2018-07-14T07:40:18.980Z,24.07
2018-07-14T07:42:48.085Z,24.10
2018-07-14T07:45:16.455Z,25.30
2018-07-14T07:47:44.795Z,24.37
2018-07-14T07:50:13.165Z,24.60
2018-07-14T07:52:41.506Z,24.43
2018-07-14T07:55:09.977Z,26.03
2018-07-14T07:57:38.668Z,25.63
2018-07-14T08:00:07.208Z,22.97
2018-07-14T08:02:35.533Z,24.63
2018-07-14T08:05:03.998Z,24.53
2018-07-14T08:07:32.343Z,21.63
2018-07-14T08:10:00.820Z,20.40
2018-07-14T08:12:29.174Z,20.68
2018-07-14T08:14:57.564Z,20.23
2018-07-14T08:17:25.899Z,21.13
2018-07-14T08:19:54.746Z,21.13
2018-07-14T08:22:23.064Z,21.80
2018-07-14T08:24:51.439Z,19.60
2018-07-14T08:27:21.051Z,21.10
2018-07-14T08:29:49.505Z,19.80
2018-07-14T08:32:17.875Z,20.10
2018-07-14T08:34:46.255Z,19.57
2018-07-14T08:37:14.583Z,20.73
2018-07-14T08:39:43.071Z,19.60
2018-07-14T08:42:11.412Z,19.97
2018-07-14T08:44:39.770Z,19.60
2018-07-14T08:47:08.190Z,19.93
2018-07-14T08:49:36.547Z,18.20
2018-07-14T08:52:04.952Z,17.67
2018-07-14T08:54:33.960Z,19.23
2018-07-14T08:57:02.300Z,20.20
2018-07-14T08:59:30.757Z,17.43
2018-07-14T09:01:59.131Z,17.85
2018-07-14T09:04:27.793Z,16.97
2018-07-14T09:06:56.236Z,17.27
2018-07-14T09:09:24.656Z,16.77
2018-07-14T09:11:53.046Z,16.77
2018-07-14T09:14:21.444Z,17.25
2018-07-14T09:16:49.881Z,17.95
2018-07-14T09:19:18.849Z,17.73
2018-07-14T09:21:47.241Z,17.92
2018-07-14T09:24:15.635Z,17.82
2018-07-14T09:26:44.888Z,16.70
2018-07-14T09:29:13.721Z,17.80
2018-07-14T09:31:42.168Z,16.40
2018-07-14T09:34:10.581Z,15.95
2018-07-14T09:36:39.326Z,17.10
2018-07-14T09:39:07.922Z,16.05
2018-07-14T09:41:36.374Z,15.93
2018-07-14T09:44:04.780Z,16.37
2018-07-14T09:46:33.233Z,16.82
2018-07-14T09:49:01.549Z,16.12
2018-07-14T09:51:29.906Z,16.25
2018-07-14T09:53:58.297Z,14.65
2018-07-14T09:56:26.863Z,16.65
2018-07-14T09:58:55.390Z,14.80
2018-07-14T10:01:24.130Z,14.28
2018-07-14T10:03:53.324Z,14.40
2018-07-14T10:06:22.388Z,13.08
2018-07-14T10:08:50.937Z,14.47
2018-07-14T10:11:19.580Z,13.85
2018-07-14T10:13:48.677Z,11.97
2018-07-14T10:16:17.063Z,12.70
2018-07-14T10:18:45.492Z,13.88
2018-07-14T10:21:13.874Z,12.93
2018-07-14T10:23:42.229Z,14.10
2018-07-14T10:26:10.769Z,12.15
2018-07-14T10:28:39.190Z,12.68
2018-07-14T10:31:07.934Z,12.25
2018-07-14T10:33:36.570Z,14.00
2018-07-14T10:36:07.556Z,11.60
2018-07-14T10:38:36.009Z,12.23
2018-07-14T10:41:04.536Z,13.48
2018-07-14T10:43:33.129Z,11.00
2018-07-14T10:46:03.404Z,13.28
2018-07-14T10:48:31.847Z,12.53
2018-07-14T11:32:16.061Z,7.92
2018-07-14T11:34:52.639Z,8.25
2018-07-14T11:37:23.679Z,7.15
2018-07-14T11:39:58.041Z,6.97
2018-07-14T11:42:28.350Z,9.05
2018-07-14T11:45:01.530Z,8.95
2018-07-14T11:47:44.527Z,7.20
2018-07-14T11:50:15.180Z,8.65
2018-07-14T11:52:49.559Z,10.03
2018-07-14T11:55:19.411Z,8.18
2018-07-14T11:57:51.713Z,8.28
2018-07-14T12:03:01.087Z,9.10
2018-07-14T12:05:37.811Z,7.75
2018-07-14T12:08:12.401Z,8.28
2018-07-14T12:10:46.702Z,9.58
2018-07-14T12:13:22.097Z,8.88
2018-07-14T12:16:13.135Z,8.83
2018-07-14T12:19:14.957Z,8.13
2018-07-14T12:22:13.624Z,7.40
2018-07-14T12:25:03.597Z,8.75
2018-07-14T12:28:03.994Z,9.20
2018-07-14T12:30:50.514Z,9.13
2018-07-14T12:33:58.791Z,9.05
2018-07-14T12:36:38.906Z,11.43
2018-07-14T12:39:10.838Z,10.85
2018-07-14T12:41:48.807Z,8.88
2018-07-14T12:44:27.430Z,9.70
2018-07-14T12:47:07.683Z,9.03
2018-07-14T12:49:51.785Z,8.85
2018-07-14T12:52:24.159Z,9.00
2018-07-14T12:55:09.553Z,8.50
2018-07-14T12:57:49.648Z,9.18
2018-07-14T13:00:30.861Z,9.78
2018-07-14T13:03:15.664Z,9.95
2018-07-14T13:05:54.167Z,9.38
2018-07-14T13:08:26.100Z,10.03
2018-07-14T13:11:05.307Z,8.63
2018-07-14T13:13:53.994Z,8.88
2018-07-14T13:19:21.477Z,9.53
2018-07-14T13:21:56.447Z,9.05
2018-07-14T13:24:50.385Z,9.83
2018-07-14T13:27:31.766Z,10.03
2018-07-14T13:30:13.420Z,9.58
2018-07-14T13:32:58.823Z,10.93
2018-07-14T13:35:41.285Z,8.40
2018-07-14T13:38:22.087Z,9.10
2018-07-14T13:40:56.192Z,9.75
2018-07-14T13:43:47.952Z,10.75
2018-07-14T13:46:26.220Z,9.83
2018-07-14T13:49:07.823Z,8.90
2018-07-14T13:51:58.794Z,9.43
2018-07-14T13:54:41.418Z,8.70
2018-07-14T13:57:42.495Z,10.30
2018-07-14T14:00:18.314Z,8.73
2018-07-14T14:02:56.430Z,10.08
2018-07-14T14:05:45.046Z,9.90
2018-07-14T14:08:23.903Z,9.90
2018-07-14T14:13:52.716Z,11.38
2018-07-14T14:16:31.795Z,9.70
2018-07-14T14:19:11.381Z,9.05
2018-07-14T14:24:42.094Z,9.80
2018-07-14T14:30:08.846Z,8.75
2018-07-14T14:32:48.131Z,9.53
2018-07-14T14:35:31.416Z,9.00
2018-07-14T14:38:13.684Z,8.63
2018-07-14T14:40:47.405Z,10.35
2018-07-14T14:43:19.167Z,8.35
2018-07-14T14:45:51.494Z,7.67
2018-07-14T14:48:23.222Z,10.20
2018-07-14T14:51:01.610Z,8.08
2018-07-14T14:53:38.835Z,8.98
2018-07-14T14:56:16.723Z,8.00
2018-07-14T14:58:49.615Z,11.55
2018-07-14T15:01:19.759Z,10.55
2018-07-14T15:03:53.248Z,8.13
2018-07-14T15:06:28.732Z,7.90
2018-07-14T15:09:00.998Z,8.23
2018-07-14T15:11:31.822Z,8.38
2018-07-14T15:14:06.668Z,8.30
2018-07-14T15:16:39.896Z,8.30
2018-07-14T15:19:13.413Z,8.20
2018-07-14T15:21:47.177Z,8.08
2018-07-14T15:24:21.139Z,7.95
2018-07-14T15:26:53.062Z,7.55
2018-07-14T15:29:27.709Z,7.37
2018-07-14T15:32:04.236Z,8.15
2018-07-14T15:34:34.929Z,8.45
2018-07-14T15:37:15.109Z,7.10
2018-07-14T15:39:46.466Z,7.72
2018-07-14T15:42:16.799Z,7.53
2018-07-14T15:45:00.669Z,7.33
2018-07-14T15:47:49.447Z,7.65
2018-07-14T15:50:18.407Z,7.28
2018-07-14T15:52:47.515Z,8.00
2018-07-14T15:55:17.874Z,8.40
2018-07-14T15:57:50.609Z,8.78
2018-07-14T16:00:19.313Z,8.53
2018-07-14T16:02:49.279Z,8.40
2018-07-14T16:05:22.987Z,8.80
2018-07-14T16:07:54.077Z,9.38
2018-07-14T16:10:25.694Z,8.08
2018-07-14T16:12:59.100Z,8.38
2018-07-14T16:15:35.100Z,8.65
2018-07-14T16:18:09.329Z,8.45
2018-07-14T16:20:44.611Z,8.30
2018-07-14T16:23:20.040Z,8.35
2018-07-14T16:25:53.385Z,8.35
2018-07-14T16:28:27.057Z,9.40
2018-07-14T16:31:00.512Z,8.30
2018-07-14T16:33:34.073Z,8.18
2018-07-14T16:36:08.167Z,9.80
2018-07-14T16:38:44.340Z,8.25
2018-07-14T16:41:20.120Z,7.70
2018-07-14T16:43:52.480Z,8.00
2018-07-14T16:46:24.816Z,7.90
2018-07-14T16:48:58.472Z,8.58
2018-07-14T16:51:31.277Z,12.10
2018-07-14T16:54:02.287Z,7.42
2018-07-14T16:56:33.346Z,7.80
2018-07-14T16:59:07.345Z,8.38
2018-07-14T17:01:43.871Z,8.53
2018-07-14T17:04:19.201Z,9.53
2018-07-14T17:06:57.417Z,8.05
2018-07-14T17:09:28.700Z,9.48
2018-07-14T17:12:04.980Z,8.05
2018-07-14T17:14:37.773Z,8.93
2018-07-14T17:17:10.469Z,7.83
2018-07-14T17:19:48.249Z,7.47
2018-07-14T17:22:28.294Z,7.67
2018-07-14T17:25:02.448Z,8.03
2018-07-14T17:27:41.522Z,7.60
2018-07-14T17:30:18.354Z,7.40
2018-07-14T17:32:50.674Z,9.20
2018-07-14T17:35:31.065Z,8.05
2018-07-14T17:38:07.765Z,9.60
2018-07-14T17:40:42.032Z,7.72
2018-07-14T17:43:13.374Z,7.58
2018-07-14T17:45:46.195Z,8.73
2018-07-14T17:48:19.131Z,13.10
2018-07-14T17:50:52.952Z,8.20
2018-07-14T17:53:29.268Z,7.45
2018-07-14T17:56:04.352Z,7.58
2018-07-14T17:58:50.023Z,10.25
2018-07-14T18:01:31.176Z,8.15
2018-07-14T18:04:05.868Z,8.15
2018-07-14T18:06:42.614Z,8.15
2018-07-14T18:09:36.132Z,7.97
2018-07-14T18:12:16.645Z,8.58
2018-07-14T18:14:51.270Z,7.85
2018-07-14T18:17:30.708Z,7.95
2018-07-14T18:20:12.655Z,8.85
2018-07-14T18:22:44.055Z,8.20
2018-07-14T18:25:17.585Z,8.05
2018-07-14T18:27:52.792Z,8.48
2018-07-14T18:30:26.859Z,8.53
2018-07-14T18:32:58.405Z,8.13
2018-07-14T18:35:29.701Z,9.05
2018-07-14T18:38:08.017Z,9.13
2018-07-14T18:40:43.963Z,8.65
2018-07-14T18:43:23.100Z,8.65
2018-07-14T18:46:03.658Z,9.03
2018-07-14T18:48:42.425Z,13.75
2018-07-14T18:51:14.287Z,21.93
2018-07-14T18:53:48.926Z,11.53
2018-07-14T18:56:46.276Z,17.90
2018-07-14T18:59:18.904Z,19.73
2018-07-14T19:01:52.391Z,11.28
2018-07-14T19:04:23.970Z,12.40
2018-07-14T19:06:56.336Z,10.03
2018-07-14T19:09:29.258Z,11.55
2018-07-14T19:12:05.162Z,10.13
2018-07-14T19:14:41.910Z,10.00
2018-07-14T19:17:17.462Z,10.32
2018-07-14T19:19:55.379Z,10.25
2018-07-14T19:22:32.981Z,10.53
2018-07-14T19:25:07.238Z,11.75
2018-07-14T19:27:49.515Z,17.00
2018-07-14T19:30:23.807Z,12.68
2018-07-14T19:32:55.475Z,12.07
2018-07-14T19:35:27.267Z,11.50
2018-07-14T19:37:59.686Z,12.58
2018-07-14T19:40:29.066Z,12.63
2018-07-14T19:42:59.157Z,11.25
2018-07-14T19:45:28.717Z,11.40
2018-07-14T19:47:58.097Z,13.58
2018-07-14T19:50:27.359Z,11.80
2018-07-14T19:52:56.887Z,12.63
2018-07-14T19:55:27.315Z,11.80
2018-07-14T19:57:56.906Z,12.88
2018-07-14T20:00:26.138Z,12.20
2018-07-14T20:02:56.007Z,12.95
2018-07-14T20:05:24.493Z,12.50
2018-07-14T20:07:57.497Z,13.13
2018-07-14T20:10:26.339Z,13.13
2018-07-14T20:12:54.778Z,13.93
2018-07-14T20:15:23.201Z,12.98
2018-07-14T20:17:51.957Z,13.60
2018-07-14T20:20:20.434Z,14.28
2018-07-14T20:22:48.900Z,13.90
2018-07-14T20:25:19.757Z,13.68
2018-07-14T20:27:48.163Z,14.35
2018-07-14T20:30:20.279Z,12.73
2018-07-14T20:32:48.794Z,14.95
2018-07-14T20:35:17.404Z,14.87
2018-07-14T20:37:45.815Z,15.40
2018-07-14T20:40:14.226Z,14.78
2018-07-14T20:42:42.656Z,13.43
2018-07-14T20:45:11.010Z,13.48
2018-07-14T20:47:39.557Z,13.35
2018-07-14T20:50:07.996Z,13.43
2018-07-14T20:52:36.432Z,13.32
2018-07-14T20:55:04.912Z,14.65
2018-07-14T20:57:33.347Z,14.13
2018-07-14T21:00:01.774Z,14.20
2018-07-14T21:02:30.180Z,14.07
2018-07-14T21:04:58.576Z,13.55
2018-07-14T21:07:27.030Z,14.43
2018-07-14T21:09:55.494Z,14.43
2018-07-14T21:12:24.063Z,14.03
2018-07-14T21:14:52.434Z,13.90
2018-07-14T21:17:20.924Z,13.63
2018-07-14T21:19:49.331Z,13.32
2018-07-14T21:22:17.732Z,12.88
2018-07-14T21:24:46.123Z,11.43
2018-07-14T21:27:14.713Z,11.63
2018-07-14T21:29:43.157Z,11.60
2018-07-14T21:32:11.610Z,11.27
2018-07-14T21:34:40.048Z,10.88
2018-07-14T21:37:08.515Z,11.07
2018-07-14T21:39:36.957Z,9.48
2018-07-14T21:42:05.380Z,11.03
2018-07-14T21:44:33.796Z,11.10
2018-07-14T21:47:02.279Z,10.03
2018-07-14T21:49:30.687Z,9.83
2018-07-14T21:51:59.098Z,9.23
2018-07-14T21:54:27.542Z,10.03
2018-07-14T21:56:55.928Z,8.67
2018-07-14T21:59:24.296Z,9.13
2018-07-14T22:01:53.429Z,10.00
2018-07-14T22:04:22.402Z,7.97
2018-07-14T22:06:51.732Z,8.25
2018-07-14T22:09:20.185Z,7.93
2018-07-14T22:11:48.606Z,8.45
2018-07-14T22:14:17.056Z,9.23
2018-07-14T22:16:45.472Z,7.67
2018-07-14T22:19:13.887Z,7.50
2018-07-14T22:21:42.300Z,7.80
2018-07-14T22:24:10.748Z,7.20
2018-07-14T22:26:39.206Z,7.90
2018-07-14T22:29:07.698Z,8.23
2018-07-14T22:31:36.142Z,7.87
2018-07-14T22:34:04.681Z,9.58
2018-07-14T22:36:33.175Z,6.83
2018-07-14T22:39:01.546Z,7.53
2018-07-14T22:41:30.045Z,7.33
2018-07-14T22:43:58.578Z,7.07
2018-07-14T22:46:26.969Z,7.30
2018-07-14T22:48:55.391Z,7.27
2018-07-14T22:51:23.843Z,7.10
2018-07-14T22:53:52.377Z,9.30
2018-07-14T22:56:20.891Z,7.00
2018-07-14T22:58:49.351Z,6.97
2018-07-14T23:01:17.729Z,6.97
2018-07-14T23:03:46.188Z,6.70
2018-07-14T23:06:14.686Z,7.30
2018-07-14T23:08:43.165Z,6.60
2018-07-14T23:11:11.644Z,7.57
2018-07-14T23:13:40.095Z,7.00
2018-07-14T23:16:08.481Z,8.63
2018-07-14T23:18:37.040Z,7.30
2018-07-14T23:21:05.534Z,6.37
2018-07-14T23:23:33.958Z,6.23
2018-07-14T23:26:02.427Z,7.40
2018-07-14T23:28:31.232Z,6.23
2018-07-14T23:30:59.683Z,6.60
2018-07-14T23:33:28.312Z,7.30
2018-07-14T23:35:57.227Z,6.27
2018-07-14T23:38:25.844Z,6.60
2018-07-14T23:40:54.313Z,6.40
2018-07-14T23:43:22.732Z,6.43
2018-07-14T23:45:51.125Z,6.60
2018-07-14T23:48:19.518Z,6.70
2018-07-14T23:50:48.023Z,6.63
2018-07-14T23:53:16.620Z,8.63
2018-07-14T23:55:45.024Z,6.83
2018-07-14T23:58:13.603Z,7.00
